sensor_id;sensor_type;location;lat;lon;timestamp;temperature;humidity
78902;DHT22;70441;44.758;37.686;2023-08-06T00:00:57;28.92;46.67
78902;DHT22;70441;44.758;37.686;2023-08-06T00:01:59;28.91;46.58
78902;DHT22;70441;44.758;37.686;2023-08-06T00:03:00;28.90;46.57
78902;DHT22;70441;44.758;37.686;2023-08-06T00:04:01;28.91;46.71
78902;DHT22;70441;44.758;37.686;2023-08-06T00:05:04;28.87;46.84
78902;DHT22;70441;44.758;37.686;2023-08-06T00:06:05;28.84;46.84
78902;DHT22;70441;44.758;37.686;2023-08-06T00:07:07;28.84;46.95
78902;DHT22;70441;44.758;37.686;2023-08-06T00:08:08;28.81;47.12
78902;DHT22;70441;44.758;37.686;2023-08-06T00:09:10;28.78;47.15
78902;DHT22;70441;44.758;37.686;2023-08-06T00:10:11;28.75;47.32
78902;DHT22;70441;44.758;37.686;2023-08-06T00:11:12;28.71;47.38
78902;DHT22;70441;44.758;37.686;2023-08-06T00:12:14;28.73;47.40
78902;DHT22;70441;44.758;37.686;2023-08-06T00:13:15;28.70;47.66
78902;DHT22;70441;44.758;37.686;2023-08-06T00:14:17;28.66;47.65
78902;DHT22;70441;44.758;37.686;2023-08-06T00:15:18;28.64;47.69
78902;DHT22;70441;44.758;37.686;2023-08-06T00:16:20;28.59;47.79
78902;DHT22;70441;44.758;37.686;2023-08-06T00:17:21;28.60;47.83
78902;DHT22;70441;44.758;37.686;2023-08-06T00:18:23;28.56;47.95
78902;DHT22;70441;44.758;37.686;2023-08-06T00:19:24;28.52;48.02
78902;DHT22;70441;44.758;37.686;2023-08-06T00:20:25;28.50;48.19
78902;DHT22;70441;44.758;37.686;2023-08-06T00:21:26;28.50;48.19
78902;DHT22;70441;44.758;37.686;2023-08-06T00:22:28;28.48;48.19
78902;DHT22;70441;44.758;37.686;2023-08-06T00:23:29;28.43;48.30
78902;DHT22;70441;44.758;37.686;2023-08-06T00:24:31;28.42;47.69
78902;DHT22;70441;44.758;37.686;2023-08-06T00:25:32;28.43;47.78
78902;DHT22;70441;44.758;37.686;2023-08-06T00:26:33;28.48;47.96
78902;DHT22;70441;44.758;37.686;2023-08-06T00:27:35;28.46;47.92
78902;DHT22;70441;44.758;37.686;2023-08-06T00:28:36;28.46;47.97
78902;DHT22;70441;44.758;37.686;2023-08-06T00:29:38;28.41;48.21
78902;DHT22;70441;44.758;37.686;2023-08-06T00:30:39;28.36;48.17
78902;DHT22;70441;44.758;37.686;2023-08-06T00:31:40;28.33;48.32
78902;DHT22;70441;44.758;37.686;2023-08-06T00:32:47;28.33;48.22
78902;DHT22;70441;44.758;37.686;2023-08-06T00:33:48;28.31;48.61
78902;DHT22;70441;44.758;37.686;2023-08-06T00:34:50;28.29;48.38
78902;DHT22;70441;44.758;37.686;2023-08-06T00:35:51;28.25;48.30
78902;DHT22;70441;44.758;37.686;2023-08-06T00:36:53;28.24;48.26
78902;DHT22;70441;44.758;37.686;2023-08-06T00:37:54;28.25;48.58
78902;DHT22;70441;44.758;37.686;2023-08-06T00:38:56;28.22;48.67
78902;DHT22;70441;44.758;37.686;2023-08-06T00:39:57;28.18;48.94
78902;DHT22;70441;44.758;37.686;2023-08-06T00:40:58;28.17;49.00
78902;DHT22;70441;44.758;37.686;2023-08-06T00:42:00;28.15;49.18
78902;DHT22;70441;44.758;37.686;2023-08-06T00:43:01;28.14;49.28
78902;DHT22;70441;44.758;37.686;2023-08-06T00:44:03;28.12;49.28
78902;DHT22;70441;44.758;37.686;2023-08-06T00:45:04;28.09;49.31
78902;DHT22;70441;44.758;37.686;2023-08-06T00:46:09;28.09;49.53
78902;DHT22;70441;44.758;37.686;2023-08-06T00:47:10;28.04;49.55
78902;DHT22;70441;44.758;37.686;2023-08-06T00:48:12;28.02;49.73
78902;DHT22;70441;44.758;37.686;2023-08-06T00:49:13;28.02;49.81
78902;DHT22;70441;44.758;37.686;2023-08-06T00:50:15;27.94;49.89
78902;DHT22;70441;44.758;37.686;2023-08-06T00:51:17;27.91;50.00
78902;DHT22;70441;44.758;37.686;2023-08-06T00:52:18;27.91;49.95
78902;DHT22;70441;44.758;37.686;2023-08-06T00:53:20;27.89;50.13
78902;DHT22;70441;44.758;37.686;2023-08-06T00:54:21;27.86;50.32
78902;DHT22;70441;44.758;37.686;2023-08-06T00:55:24;27.77;50.46
78902;DHT22;70441;44.758;37.686;2023-08-06T00:56:26;27.69;50.62
78902;DHT22;70441;44.758;37.686;2023-08-06T00:57:27;27.63;50.89
78902;DHT22;70441;44.758;37.686;2023-08-06T00:58:29;27.57;51.23
78902;DHT22;70441;44.758;37.686;2023-08-06T00:59:31;27.45;51.61
78902;DHT22;70441;44.758;37.686;2023-08-06T01:00:32;27.32;51.92
78902;DHT22;70441;44.758;37.686;2023-08-06T01:01:34;27.24;52.21
78902;DHT22;70441;44.758;37.686;2023-08-06T01:02:36;27.24;52.22
78902;DHT22;70441;44.758;37.686;2023-08-06T01:03:37;27.20;52.43
78902;DHT22;70441;44.758;37.686;2023-08-06T01:04:39;27.14;52.71
78902;DHT22;70441;44.758;37.686;2023-08-06T01:05:40;27.10;52.82
78902;DHT22;70441;44.758;37.686;2023-08-06T01:06:48;27.03;53.03
78902;DHT22;70441;44.758;37.686;2023-08-06T01:08:12;26.99;53.20
78902;DHT22;70441;44.758;37.686;2023-08-06T01:12:22;26.94;53.35
78902;DHT22;70441;44.758;37.686;2023-08-06T01:13:46;26.86;53.60
78902;DHT22;70441;44.758;37.686;2023-08-06T01:14:58;26.83;53.74
78902;DHT22;70441;44.758;37.686;2023-08-06T01:16:02;26.78;53.89
78902;DHT22;70441;44.758;37.686;2023-08-06T01:17:04;26.75;54.06
78902;DHT22;70441;44.758;37.686;2023-08-06T01:18:06;26.69;54.17
78902;DHT22;70441;44.758;37.686;2023-08-06T01:19:25;26.68;54.31
78902;DHT22;70441;44.758;37.686;2023-08-06T01:20:30;26.62;54.45
78902;DHT22;70441;44.758;37.686;2023-08-06T01:21:32;26.59;54.44
78902;DHT22;70441;44.758;37.686;2023-08-06T01:22:33;26.59;54.52
78902;DHT22;70441;44.758;37.686;2023-08-06T01:23:35;26.58;54.55
78902;DHT22;70441;44.758;37.686;2023-08-06T01:24:36;26.55;54.73
78902;DHT22;70441;44.758;37.686;2023-08-06T01:26:02;26.49;54.65
78902;DHT22;70441;44.758;37.686;2023-08-06T01:27:13;26.48;54.82
78902;DHT22;70441;44.758;37.686;2023-08-06T01:28:52;26.44;54.77
78902;DHT22;70441;44.758;37.686;2023-08-06T01:29:59;26.44;54.97
78902;DHT22;70441;44.758;37.686;2023-08-06T01:31:05;26.41;54.95
78902;DHT22;70441;44.758;37.686;2023-08-06T01:32:14;26.38;54.97
78902;DHT22;70441;44.758;37.686;2023-08-06T01:33:19;26.37;55.01
78902;DHT22;70441;44.758;37.686;2023-08-06T01:34:24;26.37;54.98
78902;DHT22;70441;44.758;37.686;2023-08-06T01:35:29;26.35;55.21
78902;DHT22;70441;44.758;37.686;2023-08-06T01:36:33;26.34;55.15
78902;DHT22;70441;44.758;37.686;2023-08-06T01:37:35;26.31;55.41
78902;DHT22;70441;44.758;37.686;2023-08-06T01:38:38;26.28;55.23
78902;DHT22;70441;44.758;37.686;2023-08-06T01:39:42;26.28;55.38
78902;DHT22;70441;44.758;37.686;2023-08-06T01:40:43;26.27;55.44
78902;DHT22;70441;44.758;37.686;2023-08-06T01:41:44;26.21;55.58
78902;DHT22;70441;44.758;37.686;2023-08-06T01:42:46;26.16;55.70
78902;DHT22;70441;44.758;37.686;2023-08-06T01:43:48;26.16;55.63
78902;DHT22;70441;44.758;37.686;2023-08-06T01:44:50;26.16;55.67
78902;DHT22;70441;44.758;37.686;2023-08-06T01:45:51;26.14;55.79
78902;DHT22;70441;44.758;37.686;2023-08-06T01:46:52;26.12;55.94
78902;DHT22;70441;44.758;37.686;2023-08-06T01:47:54;26.07;56.05
78902;DHT22;70441;44.758;37.686;2023-08-06T01:48:55;26.06;56.23
78902;DHT22;70441;44.758;37.686;2023-08-06T01:49:56;26.03;56.31
78902;DHT22;70441;44.758;37.686;2023-08-06T01:50:57;26.00;56.34
78902;DHT22;70441;44.758;37.686;2023-08-06T01:51:59;25.97;56.49
78902;DHT22;70441;44.758;37.686;2023-08-06T01:53:00;25.93;56.59
78902;DHT22;70441;44.758;37.686;2023-08-06T01:54:03;25.90;56.66
78902;DHT22;70441;44.758;37.686;2023-08-06T01:55:04;25.89;56.74
78902;DHT22;70441;44.758;37.686;2023-08-06T01:56:06;25.86;56.71
78902;DHT22;70441;44.758;37.686;2023-08-06T01:57:07;25.86;56.82
78902;DHT22;70441;44.758;37.686;2023-08-06T01:58:08;25.83;56.95
78902;DHT22;70441;44.758;37.686;2023-08-06T01:59:10;25.81;56.94
78902;DHT22;70441;44.758;37.686;2023-08-06T02:00:11;25.76;56.99
78902;DHT22;70441;44.758;37.686;2023-08-06T02:01:16;25.76;56.98
78902;DHT22;70441;44.758;37.686;2023-08-06T02:02:17;25.81;57.02
78902;DHT22;70441;44.758;37.686;2023-08-06T02:03:18;25.78;57.08
78902;DHT22;70441;44.758;37.686;2023-08-06T02:04:23;25.73;57.09
78902;DHT22;70441;44.758;37.686;2023-08-06T02:05:25;25.73;57.19
78902;DHT22;70441;44.758;37.686;2023-08-06T02:06:26;25.72;57.21
78902;DHT22;70441;44.758;37.686;2023-08-06T02:07:27;25.71;57.27
78902;DHT22;70441;44.758;37.686;2023-08-06T02:08:29;25.69;57.36
78902;DHT22;70441;44.758;37.686;2023-08-06T02:09:30;25.68;57.32
78902;DHT22;70441;44.758;37.686;2023-08-06T02:10:31;25.71;57.33
78902;DHT22;70441;44.758;37.686;2023-08-06T02:11:33;25.69;57.32
78902;DHT22;70441;44.758;37.686;2023-08-06T02:12:34;25.68;57.23
78902;DHT22;70441;44.758;37.686;2023-08-06T02:13:35;25.68;57.40
78902;DHT22;70441;44.758;37.686;2023-08-06T02:14:37;25.68;57.34
78902;DHT22;70441;44.758;37.686;2023-08-06T02:15:44;25.69;57.39
78902;DHT22;70441;44.758;37.686;2023-08-06T02:16:48;25.64;57.41
78902;DHT22;70441;44.758;37.686;2023-08-06T02:17:50;25.62;57.45
78902;DHT22;70441;44.758;37.686;2023-08-06T02:18:52;25.66;57.47
78902;DHT22;70441;44.758;37.686;2023-08-06T02:20:00;25.64;57.49
78902;DHT22;70441;44.758;37.686;2023-08-06T02:21:02;25.62;57.49
78902;DHT22;70441;44.758;37.686;2023-08-06T02:22:04;25.62;57.66
78902;DHT22;70441;44.758;37.686;2023-08-06T02:23:06;25.61;57.51
78902;DHT22;70441;44.758;37.686;2023-08-06T02:24:07;25.61;57.63
78902;DHT22;70441;44.758;37.686;2023-08-06T02:25:08;25.58;57.64
78902;DHT22;70441;44.758;37.686;2023-08-06T02:26:10;25.61;57.61
78902;DHT22;70441;44.758;37.686;2023-08-06T02:27:11;25.61;57.44
78902;DHT22;70441;44.758;37.686;2023-08-06T02:28:12;25.64;57.48
78902;DHT22;70441;44.758;37.686;2023-08-06T02:29:14;25.64;57.59
78902;DHT22;70441;44.758;37.686;2023-08-06T02:30:19;25.61;57.54
78902;DHT22;70441;44.758;37.686;2023-08-06T02:31:20;25.61;57.56
78902;DHT22;70441;44.758;37.686;2023-08-06T02:32:27;25.62;57.74
78902;DHT22;70441;44.758;37.686;2023-08-06T02:33:30;25.59;57.55
78902;DHT22;70441;44.758;37.686;2023-08-06T02:34:31;25.61;57.62
78902;DHT22;70441;44.758;37.686;2023-08-06T02:35:33;25.61;57.65
78902;DHT22;70441;44.758;37.686;2023-08-06T02:36:34;25.57;57.70
78902;DHT22;70441;44.758;37.686;2023-08-06T02:37:36;25.58;57.83
78902;DHT22;70441;44.758;37.686;2023-08-06T02:38:37;25.55;57.86
78902;DHT22;70441;44.758;37.686;2023-08-06T02:39:39;25.52;57.87
78902;DHT22;70441;44.758;37.686;2023-08-06T02:40:47;25.55;57.96
78902;DHT22;70441;44.758;37.686;2023-08-06T02:41:49;25.54;57.94
78902;DHT22;70441;44.758;37.686;2023-08-06T02:42:50;25.55;57.81
78902;DHT22;70441;44.758;37.686;2023-08-06T02:43:52;25.54;57.94
78902;DHT22;70441;44.758;37.686;2023-08-06T02:44:53;25.54;58.05
78902;DHT22;70441;44.758;37.686;2023-08-06T02:45:58;25.51;58.08
78902;DHT22;70441;44.758;37.686;2023-08-06T02:47:00;25.54;58.14
78902;DHT22;70441;44.758;37.686;2023-08-06T02:48:02;25.51;58.22
78902;DHT22;70441;44.758;37.686;2023-08-06T02:49:04;25.51;58.28
78902;DHT22;70441;44.758;37.686;2023-08-06T02:50:05;25.49;58.26
78902;DHT22;70441;44.758;37.686;2023-08-06T02:51:07;25.52;58.27
78902;DHT22;70441;44.758;37.686;2023-08-06T02:52:08;25.54;58.14
78902;DHT22;70441;44.758;37.686;2023-08-06T02:53:09;25.55;58.10
78902;DHT22;70441;44.758;37.686;2023-08-06T02:54:13;25.58;58.08
78902;DHT22;70441;44.758;37.686;2023-08-06T02:55:14;25.59;57.92
78902;DHT22;70441;44.758;37.686;2023-08-06T02:56:19;25.64;57.94
78902;DHT22;70441;44.758;37.686;2023-08-06T02:57:32;25.69;57.77
78902;DHT22;70441;44.758;37.686;2023-08-06T02:58:33;25.75;57.79
78902;DHT22;70441;44.758;37.686;2023-08-06T02:59:43;25.75;57.53
78902;DHT22;70441;44.758;37.686;2023-08-06T03:01:05;25.81;57.45
78902;DHT22;70441;44.758;37.686;2023-08-06T03:02:15;25.88;57.26
78902;DHT22;70441;44.758;37.686;2023-08-06T03:03:30;25.90;57.08
78902;DHT22;70441;44.758;37.686;2023-08-06T03:04:34;25.93;57.04
78902;DHT22;70441;44.758;37.686;2023-08-06T03:05:35;26.01;56.97
78902;DHT22;70441;44.758;37.686;2023-08-06T03:06:37;26.06;56.75
78902;DHT22;70441;44.758;37.686;2023-08-06T03:07:39;26.10;56.67
78902;DHT22;70441;44.758;37.686;2023-08-06T03:08:47;26.16;56.57
78902;DHT22;70441;44.758;37.686;2023-08-06T03:09:49;26.20;56.38
78902;DHT22;70441;44.758;37.686;2023-08-06T03:10:50;26.27;56.12
78902;DHT22;70441;44.758;37.686;2023-08-06T03:11:54;26.31;56.02
78902;DHT22;70441;44.758;37.686;2023-08-06T03:12:55;26.34;55.83
78902;DHT22;70441;44.758;37.686;2023-08-06T03:13:57;26.41;55.71
78902;DHT22;70441;44.758;37.686;2023-08-06T03:14:59;26.45;55.67
78902;DHT22;70441;44.758;37.686;2023-08-06T03:16:01;26.48;55.48
78902;DHT22;70441;44.758;37.686;2023-08-06T03:17:05;26.55;55.33
78902;DHT22;70441;44.758;37.686;2023-08-06T03:18:06;26.60;55.16
78902;DHT22;70441;44.758;37.686;2023-08-06T03:19:07;26.63;55.41
78902;DHT22;70441;44.758;37.686;2023-08-06T03:20:09;26.68;55.03
78902;DHT22;70441;44.758;37.686;2023-08-06T03:21:10;26.71;55.33
78902;DHT22;70441;44.758;37.686;2023-08-06T03:22:12;26.75;54.98
78902;DHT22;70441;44.758;37.686;2023-08-06T03:23:14;26.79;54.85
78902;DHT22;70441;44.758;37.686;2023-08-06T03:24:15;26.87;54.70
78902;DHT22;70441;44.758;37.686;2023-08-06T03:25:18;26.91;54.47
78902;DHT22;70441;44.758;37.686;2023-08-06T03:26:22;26.97;54.57
78902;DHT22;70441;44.758;37.686;2023-08-06T03:27:24;27.06;54.63
78902;DHT22;70441;44.758;37.686;2023-08-06T03:28:26;27.12;54.14
78902;DHT22;70441;44.758;37.686;2023-08-06T03:29:28;27.21;53.76
78902;DHT22;70441;44.758;37.686;2023-08-06T03:30:32;27.25;53.46
78902;DHT22;70441;44.758;37.686;2023-08-06T03:31:33;27.37;53.65
78902;DHT22;70441;44.758;37.686;2023-08-06T03:32:40;27.41;53.33
78902;DHT22;70441;44.758;37.686;2023-08-06T03:33:42;27.48;53.12
78902;DHT22;70441;44.758;37.686;2023-08-06T03:34:49;27.52;52.91
78902;DHT22;70441;44.758;37.686;2023-08-06T03:35:52;27.59;52.99
78902;DHT22;70441;44.758;37.686;2023-08-06T03:36:54;27.65;52.57
78902;DHT22;70441;44.758;37.686;2023-08-06T03:37:55;27.70;52.51
78902;DHT22;70441;44.758;37.686;2023-08-06T03:38:57;27.80;52.59
78902;DHT22;70441;44.758;37.686;2023-08-06T03:39:58;27.84;52.55
78902;DHT22;70441;44.758;37.686;2023-08-06T03:40:59;27.90;52.46
78902;DHT22;70441;44.758;37.686;2023-08-06T03:42:01;27.94;52.12
78902;DHT22;70441;44.758;37.686;2023-08-06T03:43:03;28.00;52.16
78902;DHT22;70441;44.758;37.686;2023-08-06T03:44:04;28.04;51.54
78902;DHT22;70441;44.758;37.686;2023-08-06T03:45:06;28.11;51.60
78902;DHT22;70441;44.758;37.686;2023-08-06T03:46:08;28.18;51.79
78902;DHT22;70441;44.758;37.686;2023-08-06T03:47:09;28.25;51.37
78902;DHT22;70441;44.758;37.686;2023-08-06T03:48:11;28.28;51.40
78902;DHT22;70441;44.758;37.686;2023-08-06T03:49:12;28.31;51.12
78902;DHT22;70441;44.758;37.686;2023-08-06T03:50:15;28.35;50.76
78902;DHT22;70441;44.758;37.686;2023-08-06T03:51:17;28.41;50.73
78902;DHT22;70441;44.758;37.686;2023-08-06T03:52:20;28.43;51.08
78902;DHT22;70441;44.758;37.686;2023-08-06T03:53:22;28.52;50.63
78902;DHT22;70441;44.758;37.686;2023-08-06T03:54:24;28.57;50.49
78902;DHT22;70441;44.758;37.686;2023-08-06T03:55:25;28.70;49.78
78902;DHT22;70441;44.758;37.686;2023-08-06T03:56:27;28.75;49.61
78902;DHT22;70441;44.758;37.686;2023-08-06T03:57:28;28.83;49.55
78902;DHT22;70441;44.758;37.686;2023-08-06T03:58:31;28.84;49.28
78902;DHT22;70441;44.758;37.686;2023-08-06T03:59:33;28.94;49.22
78902;DHT22;70441;44.758;37.686;2023-08-06T04:00:35;29.00;49.31
78902;DHT22;70441;44.758;37.686;2023-08-06T04:01:36;29.07;49.47
78902;DHT22;70441;44.758;37.686;2023-08-06T04:02:38;29.15;48.69
78902;DHT22;70441;44.758;37.686;2023-08-06T04:03:39;29.32;48.42
78902;DHT22;70441;44.758;37.686;2023-08-06T04:04:40;29.42;48.61
78902;DHT22;70441;44.758;37.686;2023-08-06T04:05:42;29.49;48.15
78902;DHT22;70441;44.758;37.686;2023-08-06T04:06:43;29.57;47.43
78902;DHT22;70441;44.758;37.686;2023-08-06T04:07:44;29.68;47.59
78902;DHT22;70441;44.758;37.686;2023-08-06T04:08:45;29.74;47.36
78902;DHT22;70441;44.758;37.686;2023-08-06T04:10:13;29.82;47.48
78902;DHT22;70441;44.758;37.686;2023-08-06T04:11:14;29.88;47.62
78902;DHT22;70441;44.758;37.686;2023-08-06T04:12:16;30.02;47.12
78902;DHT22;70441;44.758;37.686;2023-08-06T04:13:18;30.09;46.69
78902;DHT22;70441;44.758;37.686;2023-08-06T04:14:20;30.15;46.74
78902;DHT22;70441;44.758;37.686;2023-08-06T04:15:21;30.19;46.26
78902;DHT22;70441;44.758;37.686;2023-08-06T04:16:22;30.25;46.42
78902;DHT22;70441;44.758;37.686;2023-08-06T04:17:24;30.33;46.02
78902;DHT22;70441;44.758;37.686;2023-08-06T04:18:26;30.37;46.35
78902;DHT22;70441;44.758;37.686;2023-08-06T04:19:27;30.50;46.07
78902;DHT22;70441;44.758;37.686;2023-08-06T04:20:28;30.67;45.84
78902;DHT22;70441;44.758;37.686;2023-08-06T04:21:30;30.89;45.68
78902;DHT22;70441;44.758;37.686;2023-08-06T04:22:31;31.10;45.06
78902;DHT22;70441;44.758;37.686;2023-08-06T04:23:32;31.27;44.24
78902;DHT22;70441;44.758;37.686;2023-08-06T04:24:38;31.20;44.65
78902;DHT22;70441;44.758;37.686;2023-08-06T04:25:40;31.27;44.51
78902;DHT22;70441;44.758;37.686;2023-08-06T04:26:41;31.34;44.35
78902;DHT22;70441;44.758;37.686;2023-08-06T04:27:42;31.45;44.35
78902;DHT22;70441;44.758;37.686;2023-08-06T04:28:45;31.71;44.11
78902;DHT22;70441;44.758;37.686;2023-08-06T04:29:46;31.90;43.30
78902;DHT22;70441;44.758;37.686;2023-08-06T04:30:48;32.20;43.26
78902;DHT22;70441;44.758;37.686;2023-08-06T04:31:49;32.41;42.11
78902;DHT22;70441;44.758;37.686;2023-08-06T04:32:59;32.67;41.11
78902;DHT22;70441;44.758;37.686;2023-08-06T04:34:01;32.86;41.13
78902;DHT22;70441;44.758;37.686;2023-08-06T04:35:04;33.07;40.70
78902;DHT22;70441;44.758;37.686;2023-08-06T04:36:06;33.27;41.16
78902;DHT22;70441;44.758;37.686;2023-08-06T04:37:08;33.38;39.64
78902;DHT22;70441;44.758;37.686;2023-08-06T04:38:10;33.57;40.27
78902;DHT22;70441;44.758;37.686;2023-08-06T04:39:11;33.72;39.55
78902;DHT22;70441;44.758;37.686;2023-08-06T04:40:13;33.86;39.00
78902;DHT22;70441;44.758;37.686;2023-08-06T04:41:14;34.03;38.17
78902;DHT22;70441;44.758;37.686;2023-08-06T04:42:16;34.20;38.24
78902;DHT22;70441;44.758;37.686;2023-08-06T04:43:17;34.29;37.93
78902;DHT22;70441;44.758;37.686;2023-08-06T04:44:18;34.45;38.20
78902;DHT22;70441;44.758;37.686;2023-08-06T04:45:20;34.29;38.01
78902;DHT22;70441;44.758;37.686;2023-08-06T04:46:21;34.01;38.50
78902;DHT22;70441;44.758;37.686;2023-08-06T04:47:22;34.06;38.16
78902;DHT22;70441;44.758;37.686;2023-08-06T04:48:44;34.40;38.27
78902;DHT22;70441;44.758;37.686;2023-08-06T04:49:45;34.65;37.86
78902;DHT22;70441;44.758;37.686;2023-08-06T04:50:47;34.84;37.97
78902;DHT22;70441;44.758;37.686;2023-08-06T04:51:49;35.00;37.18
78902;DHT22;70441;44.758;37.686;2023-08-06T04:52:50;35.07;36.92
78902;DHT22;70441;44.758;37.686;2023-08-06T04:53:51;35.11;37.15
78902;DHT22;70441;44.758;37.686;2023-08-06T04:54:53;35.10;37.69
78902;DHT22;70441;44.758;37.686;2023-08-06T04:55:54;35.15;36.80
78902;DHT22;70441;44.758;37.686;2023-08-06T04:56:56;35.32;37.45
78902;DHT22;70441;44.758;37.686;2023-08-06T04:57:57;35.15;36.84
78902;DHT22;70441;44.758;37.686;2023-08-06T04:58:59;35.11;37.58
78902;DHT22;70441;44.758;37.686;2023-08-06T05:00:00;35.38;35.75
78902;DHT22;70441;44.758;37.686;2023-08-06T05:01:01;35.56;35.98
78902;DHT22;70441;44.758;37.686;2023-08-06T05:02:03;35.73;35.33
78902;DHT22;70441;44.758;37.686;2023-08-06T05:03:05;35.89;35.11
78902;DHT22;70441;44.758;37.686;2023-08-06T05:04:07;35.93;35.41
78902;DHT22;70441;44.758;37.686;2023-08-06T05:05:09;35.79;34.95
78902;DHT22;70441;44.758;37.686;2023-08-06T05:06:10;35.62;35.34
78902;DHT22;70441;44.758;37.686;2023-08-06T05:07:12;35.53;36.29
78902;DHT22;70441;44.758;37.686;2023-08-06T05:08:16;35.49;35.98
78902;DHT22;70441;44.758;37.686;2023-08-06T05:09:17;35.51;36.20
78902;DHT22;70441;44.758;37.686;2023-08-06T05:10:19;35.56;34.99
78902;DHT22;70441;44.758;37.686;2023-08-06T05:11:20;35.70;35.40
78902;DHT22;70441;44.758;37.686;2023-08-06T05:12:21;35.87;34.97
78902;DHT22;70441;44.758;37.686;2023-08-06T05:13:22;36.09;34.56
78902;DHT22;70441;44.758;37.686;2023-08-06T05:14:24;36.39;34.76
78902;DHT22;70441;44.758;37.686;2023-08-06T05:15:25;36.70;33.24
78902;DHT22;70441;44.758;37.686;2023-08-06T05:16:27;36.94;33.70
78902;DHT22;70441;44.758;37.686;2023-08-06T05:17:28;37.17;32.52
78902;DHT22;70441;44.758;37.686;2023-08-06T05:18:29;37.14;33.07
78902;DHT22;70441;44.758;37.686;2023-08-06T05:19:33;37.13;32.67
78902;DHT22;70441;44.758;37.686;2023-08-06T05:20:54;37.35;32.30
78902;DHT22;70441;44.758;37.686;2023-08-06T05:21:56;37.50;31.97
78902;DHT22;70441;44.758;37.686;2023-08-06T05:22:57;37.65;32.04
78902;DHT22;70441;44.758;37.686;2023-08-06T05:24:19;37.85;32.55
78902;DHT22;70441;44.758;37.686;2023-08-06T05:25:20;38.02;33.39
78902;DHT22;70441;44.758;37.686;2023-08-06T05:26:21;38.11;31.79
78902;DHT22;70441;44.758;37.686;2023-08-06T05:27:23;38.26;31.33
78902;DHT22;70441;44.758;37.686;2023-08-06T05:28:25;38.26;31.28
78902;DHT22;70441;44.758;37.686;2023-08-06T05:29:27;38.39;31.27
78902;DHT22;70441;44.758;37.686;2023-08-06T05:30:28;38.40;30.68
78902;DHT22;70441;44.758;37.686;2023-08-06T05:31:30;38.48;30.78
78902;DHT22;70441;44.758;37.686;2023-08-06T05:32:36;38.56;30.55
78902;DHT22;70441;44.758;37.686;2023-08-06T05:33:38;38.57;30.57
78902;DHT22;70441;44.758;37.686;2023-08-06T05:34:39;38.67;31.57
78902;DHT22;70441;44.758;37.686;2023-08-06T05:36:02;38.83;30.42
78902;DHT22;70441;44.758;37.686;2023-08-06T05:37:04;38.92;30.18
78902;DHT22;70441;44.758;37.686;2023-08-06T05:38:06;39.04;29.71
78902;DHT22;70441;44.758;37.686;2023-08-06T05:39:07;39.11;28.86
78902;DHT22;70441;44.758;37.686;2023-08-06T05:40:09;39.08;28.66
78902;DHT22;70441;44.758;37.686;2023-08-06T05:41:10;39.15;29.25
78902;DHT22;70441;44.758;37.686;2023-08-06T05:42:12;39.27;29.45
78902;DHT22;70441;44.758;37.686;2023-08-06T05:43:13;39.33;28.48
78902;DHT22;70441;44.758;37.686;2023-08-06T05:44:14;39.33;29.26
78902;DHT22;70441;44.758;37.686;2023-08-06T05:45:33;39.26;29.15
78902;DHT22;70441;44.758;37.686;2023-08-06T05:46:55;39.38;29.98
78902;DHT22;70441;44.758;37.686;2023-08-06T05:47:56;39.42;28.43
78902;DHT22;70441;44.758;37.686;2023-08-06T05:48:59;39.49;28.52
78902;DHT22;70441;44.758;37.686;2023-08-06T05:50:00;39.36;28.28
78902;DHT22;70441;44.758;37.686;2023-08-06T05:51:01;39.36;28.81
78902;DHT22;70441;44.758;37.686;2023-08-06T05:52:03;39.23;28.60
78902;DHT22;70441;44.758;37.686;2023-08-06T05:53:27;39.18;29.35
78902;DHT22;70441;44.758;37.686;2023-08-06T05:54:28;39.15;29.55
78902;DHT22;70441;44.758;37.686;2023-08-06T05:55:30;39.22;29.20
78902;DHT22;70441;44.758;37.686;2023-08-06T05:56:41;39.26;28.83
78902;DHT22;70441;44.758;37.686;2023-08-06T05:57:43;39.18;28.92
78902;DHT22;70441;44.758;37.686;2023-08-06T05:58:44;39.30;28.80
78902;DHT22;70441;44.758;37.686;2023-08-06T05:59:47;39.40;30.06
78902;DHT22;70441;44.758;37.686;2023-08-06T06:01:08;39.54;29.10
78902;DHT22;70441;44.758;37.686;2023-08-06T06:02:10;39.61;29.34
78902;DHT22;70441;44.758;37.686;2023-08-06T06:03:11;39.70;28.01
78902;DHT22;70441;44.758;37.686;2023-08-06T06:04:12;39.63;28.58
78902;DHT22;70441;44.758;37.686;2023-08-06T06:05:14;39.74;28.84
78902;DHT22;70441;44.758;37.686;2023-08-06T06:06:35;39.71;28.44
78902;DHT22;70441;44.758;37.686;2023-08-06T06:07:37;39.73;29.53
78902;DHT22;70441;44.758;37.686;2023-08-06T06:08:39;39.81;28.23
78902;DHT22;70441;44.758;37.686;2023-08-06T06:09:40;39.84;28.33
78902;DHT22;70441;44.758;37.686;2023-08-06T06:10:42;39.63;28.57
78902;DHT22;70441;44.758;37.686;2023-08-06T06:11:44;39.57;29.66
78902;DHT22;70441;44.758;37.686;2023-08-06T06:12:46;39.63;29.91
78902;DHT22;70441;44.758;37.686;2023-08-06T06:13:51;39.78;29.75
78902;DHT22;70441;44.758;37.686;2023-08-06T06:14:53;39.92;29.25
78902;DHT22;70441;44.758;37.686;2023-08-06T06:15:55;39.94;28.25
78902;DHT22;70441;44.758;37.686;2023-08-06T06:16:57;39.85;28.60
78902;DHT22;70441;44.758;37.686;2023-08-06T06:17:58;39.77;29.21
78902;DHT22;70441;44.758;37.686;2023-08-06T06:19:00;39.73;29.36
78902;DHT22;70441;44.758;37.686;2023-08-06T06:20:02;39.74;28.88
78902;DHT22;70441;44.758;37.686;2023-08-06T06:21:05;39.85;28.55
78902;DHT22;70441;44.758;37.686;2023-08-06T06:22:07;39.91;28.82
78902;DHT22;70441;44.758;37.686;2023-08-06T06:23:08;39.88;28.43
78902;DHT22;70441;44.758;37.686;2023-08-06T06:24:09;40.02;28.47
78902;DHT22;70441;44.758;37.686;2023-08-06T06:25:11;40.09;28.16
78902;DHT22;70441;44.758;37.686;2023-08-06T06:26:13;40.13;27.98
78902;DHT22;70441;44.758;37.686;2023-08-06T06:27:14;40.12;29.03
78902;DHT22;70441;44.758;37.686;2023-08-06T06:28:16;40.13;28.53
78902;DHT22;70441;44.758;37.686;2023-08-06T06:29:17;40.16;28.06
78902;DHT22;70441;44.758;37.686;2023-08-06T06:30:18;40.22;28.45
78902;DHT22;70441;44.758;37.686;2023-08-06T06:31:20;40.31;28.62
78902;DHT22;70441;44.758;37.686;2023-08-06T06:32:26;40.36;28.53
78902;DHT22;70441;44.758;37.686;2023-08-06T06:33:28;40.35;28.04
78902;DHT22;70441;44.758;37.686;2023-08-06T06:34:29;40.28;28.29
78902;DHT22;70441;44.758;37.686;2023-08-06T06:35:30;40.33;28.65